Latest Coastal Weather Observations for Ulladulla

IDN60701

Issued at 10:21 pm EDT Saturday 25 February 2017 (issued every 10 minutes, with the page automatically refreshed every 10 minutes)

About coastal observations | Map of coastal stations | Coastal observations for NSW | Marine services | Other Formats
Station Details ID: 069138 Name: ULLADULLA AWS Lat: -35.36 Lon: 150.48 Height: 35.7 m
Data from the previous 72 hours. | See also: Recent months at Ulladulla
Date/Time
EDT
Temp
°C
Wind Pressure Rain since
9am
mm
Weather Cloud Vis
km
Sea
Height
m
Swell
Dir  Spd
kts
Gust
kts
hPa Trend Height
m
Period
s
Dir
25/10:00pm 18.0 ESE 4 9 1022.6 - 8.8 - - - - - - -
25/09:30pm 17.8 SE 6 11 1022.5 - 8.6 - - - - - - -
25/09:00pm 17.9 SSE 9 14 1022.3 - 6.8 Rain - - - - - -
25/08:30pm 18.0 SSE 4 7 1022.0 - 2.4 - - - - - - -
25/08:00pm 17.8 SSE 9 13 1021.7 - 1.0 - - - - - - -
25/07:30pm 18.5 SSE 10 14 1021.4 - 0.2 - - - - - - -
25/07:00pm 18.8 S 13 19 1021.0 - 0.0 - - - - - - -
25/06:30pm 19.2 S 15 19 1021.1 - 0.0 - - - - - - -
25/06:00pm 19.2 S 18 23 1021.0 - 0.0 - - - - - - -
25/05:30pm 18.9 S 18 23 1020.9 - 0.0 - - - - - - -
25/05:00pm 19.8 S 14 20 1020.8 - 0.0 - - - - - - -
25/04:30pm 20.0 S 14 22 1020.9 - 0.0 - - - - - - -
25/04:00pm 20.0 SSW 13 19 1021.0 - 0.0 - - - - - - -
25/03:30pm 20.8 S 14 20 1020.9 - 0.0 - - - - - - -
25/03:00pm 20.3 SSW 12 18 1021.3 - 0.0 - - - - - - -
25/02:30pm 20.6 SSW 11 17 1021.7 - 0.0 - - - - - - -
25/02:00pm 20.1 SSW 12 17 1022.2 - 0.0 - - - - - - -
25/01:30pm 19.5 SSW 12 17 1022.4 - 0.0 - - - - - - -
25/01:00pm 19.7 SSW 12 17 1022.4 - 0.0 - - - - - - -
25/12:30pm 20.0 SSW 9 15 1022.5 - 0.0 - - - - - - -
25/12:00pm 20.5 SSW 9 13 1022.6 - 0.0 - - - - - - -
25/11:30am 19.9 SSW 7 11 1023.0 - 0.0 - - - - - - -
25/11:00am 18.5 SW 7 13 1023.2 - 0.0 - - - - - - -
25/10:30am 18.6 SW 7 12 1023.2 - 0.0 - - - - - - -
25/10:00am 18.7 SW 9 15 1023.0 - 0.0 - - - - - - -
25/09:30am 17.5 SW 6 11 1023.0 - 0.0 - - - - - - -
25/09:00am 17.6 SW 8 14 1022.7 - 5.6 - - - - - - -
25/08:30am 17.4 SW 8 11 1022.6 - 5.6 - - - - - - -
25/08:00am 18.3 S 19 26 1022.1 - 5.6 - - - - - - -
25/07:30am 18.3 S 18 23 1022.1 - 5.6 - - - - - - -
25/07:00am 18.4 S 16 21 1022.0 - 5.6 - - - - - - -
25/06:30am 18.4 S 16 22 1021.7 - 5.6 - - - - - - -
25/06:00am 18.3 S 17 22 1021.5 - 5.6 - - - - - - -
25/05:44am 18.0 S 15 25 1021.4 - 5.6 - - - - - - -
25/05:30am 18.4 S 17 22 1021.4 - 5.6 - - - - - - -
25/05:00am 18.4 S 16 23 1021.2 - 5.6 - - - - - - -
25/04:30am 18.4 S 15 20 1021.2 - 5.6 - - - - - - -
25/04:00am 18.1 S 17 23 1021.3 - 5.6 - - - - - - -
25/03:30am 18.2 S 15 21 1021.3 - 5.6 - - - - - - -
25/03:00am 18.1 S 14 20 1021.5 - 5.6 - - - - - - -
25/02:30am 18.2 S 15 21 1021.5 - 5.6 - - - - - - -
25/02:00am 18.3 S 17 23 1021.7 - 5.6 - - - - - - -
25/01:30am 18.4 S 19 23 1021.7 - 5.6 - - - - - - -
25/01:00am 18.1 S 18 23 1022.0 - 5.6 - - - - - - -
25/12:30am 18.5 S 17 21 1022.1 - 5.6 - - - - - - -
25/12:00am 18.2 S 17 23 1022.2 - 5.6 - - - - - - -
 
Date/Time
EDT
Temp
°C
Wind Pressure Rain since
9am
mm
Weather Cloud Vis
km
Sea
Height
m
Swell
Dir  Spd
kts
Gust
kts
hPa Trend Height
m
Period
s
Dir
24/11:30pm 18.4 S 21 25 1022.5 - 5.6 - - - - - - -
24/11:00pm 18.1 S 21 26 1022.7 - 5.6 - - - - - - -
24/10:30pm 18.1 S 19 27 1022.8 - 5.4 - - - - - - -
24/10:00pm 18.1 S 18 25 1022.6 - 5.4 - - - - - - -
24/09:30pm 18.3 S 21 27 1022.4 - 5.2 - - - - - - -
24/09:00pm 18.4 S 21 26 1022.1 - 4.4 Rain - - - - - -
24/08:30pm 18.6 S 19 25 1021.6 - 3.6 - - - - - - -
24/08:00pm 18.8 S 19 25 1021.2 - 2.8 - - - - - - -
24/07:30pm 19.2 S 16 20 1020.6 - 2.4 - - - - - - -
24/07:00pm 19.1 SSW 10 13 1020.4 - 1.4 - - - - - - -
24/06:30pm 19.5 S 12 17 1020.2 - 0.6 - - - - - - -
24/06:00pm 20.0 S 15 18 1019.9 - 0.0 - - - - - - -
24/05:30pm 20.3 S 12 17 1019.6 - 0.0 - - - - - - -
24/05:00pm 20.4 S 14 19 1019.5 - 0.0 - - - - - - -
24/04:30pm 20.4 S 11 14 1019.5 - 0.0 - - - - - - -
24/04:00pm 20.3 S 13 19 1019.5 - 0.0 - - - - - - -
24/03:30pm 20.3 S 12 17 1019.6 - 0.0 - - - - - - -
24/03:00pm 20.4 S 13 15 1019.9 - 0.0 - - - - - - -
24/02:30pm 20.8 S 11 14 1020.0 - 0.0 - - - - - - -
24/02:00pm 20.9 S 8 12 1020.3 - 0.0 - - - - - - -
24/01:30pm 21.2 SSW 7 10 1020.7 - 0.0 - - - - - - -
24/01:00pm 20.7 S 12 14 1021.0 - 0.0 - - - - - - -
24/12:30pm 20.9 SSW 8 11 1021.3 - 0.0 - - - - - - -
24/12:00pm 20.7 SSW 9 14 1021.6 - 0.0 - - - - - - -
24/11:30am 20.8 SSW 8 13 1021.8 - 0.0 - - - - - - -
24/11:00am 21.0 SSW 9 13 1021.8 - 0.0 - - - - - - -
24/10:30am 21.3 SSW 8 12 1021.9 - 0.0 - - - - - - -
24/10:00am 20.7 SSW 9 16 1021.9 - 0.0 - - - - - - -
24/09:30am 20.7 SSW 9 13 1021.8 - 0.0 - - - - - - -
24/09:00am 20.6 SSW 10 14 1021.6 - 0.0 - - - - - - -
24/08:30am 20.5 SSW 9 14 1021.3 - 0.0 - - - - - - -
24/08:00am 20.5 SSW 10 15 1021.0 - 0.0 - - - - - - -
24/07:30am 20.5 SSW 11 16 1020.7 - 0.0 - - - - - - -
24/07:00am 20.4 SSW 10 15 1020.5 - 0.0 - - - - - - -
24/06:30am 20.3 SSW 11 15 1020.2 - 0.0 - - - - - - -
24/06:00am 20.4 SSW 11 17 1019.9 - 0.0 - - - - - - -
24/05:30am 20.4 SSW 13 20 1019.6 - 0.0 - - - - - - -
24/05:00am 20.6 SSW 12 19 1019.4 - 0.0 - - - - - - -
24/04:30am 20.7 SSW 14 20 1019.2 - 0.0 - - - - - - -
24/04:00am 20.8 SSW 13 19 1019.1 - 0.0 - - - - - - -
24/03:30am 20.9 SSW 15 23 1018.9 - 0.0 - - - - - - -
24/03:00am 20.9 SSW 15 21 1018.8 - 0.0 - - - - - - -
24/02:30am 21.0 SSW 16 21 1018.7 - 0.0 - - - - - - -
24/02:00am 21.2 SSW 15 22 1018.7 - 0.0 - - - - - - -
24/01:30am 21.4 SSW 13 19 1018.8 - 0.0 - - - - - - -
24/01:00am 21.6 SSW 11 16 1018.9 - 0.0 - - - - - - -
24/12:30am 21.9 SSW 12 19 1018.7 - 0.0 - - - - - - -
24/12:00am 22.1 SW 9 15 1018.5 - 0.0 - - - - - - -
 
Date/Time
EDT
Temp
°C
Wind Pressure Rain since
9am
mm
Weather Cloud Vis
km
Sea
Height
m
Swell
Dir  Spd
kts
Gust
kts
hPa Trend Height
m
Period
s
Dir
23/11:30pm 22.4 SW 9 15 1018.2 - 0.0 - - - - - - -
23/11:00pm 22.6 SW 6 11 1018.0 - 0.0 - - - - - - -
23/10:30pm 22.3 SSW 5 8 1017.7 - 0.0 - - - - - - -
23/10:00pm 22.9 SW 2 6 1017.3 - 0.0 - - - - - - -
23/09:30pm 23.1 N 10 15 1016.0 - 0.0 - - - - - - -
23/09:00pm 23.4 N 12 17 1015.6 - 0.0 - - - - - - -
23/08:30pm 23.6 N 12 17 1015.5 - 0.0 - - - - - - -
23/08:00pm 23.2 NNW 6 10 1015.3 - 0.0 - - - - - - -
23/07:30pm 23.5 N 5 11 1015.1 - 0.0 - - - - - - -
23/07:00pm 23.8 NE 6 12 1014.8 - 0.0 - - - - - - -
23/06:30pm 23.8 NNE 9 16 1014.8 - 0.0 - - - - - - -
23/06:00pm 24.3 NE 10 20 1014.5 - 0.0 - - - - - - -
23/05:30pm 24.6 NE 9 20 1014.5 - 0.0 - - - - - - -
23/05:00pm 25.1 NE 9 14 1014.4 - 0.0 - - - - - - -
23/04:30pm 25.3 NNE 6 11 1014.5 - 0.0 - - - - - - -
23/04:00pm 25.6 NE 6 9 1014.6 - 0.0 - - - - - - -
23/03:30pm 26.0 NNE 6 15 1014.8 - 0.0 - - - - - - -
23/03:00pm 24.9 NE 12 18 1014.9 - 0.0 - - - - - - -
23/02:30pm 25.0 NE 15 19 1015.2 - 0.0 - - - - - - -
23/02:00pm 24.7 NNE 10 17 1015.6 - 0.0 - - - - - - -
23/01:30pm 24.6 NE 16 20 1015.8 - 0.0 - - - - - - -
23/01:00pm 24.3 NNE 12 18 1016.1 - 0.0 - - - - - - -
23/12:30pm 24.3 NNE 12 16 1016.5 - 0.0 - - - - - - -
23/12:00pm 24.1 NNE 10 14 1016.8 - 0.0 - - - - - - -
23/11:30am 23.9 NNE 9 13 1016.9 - 0.0 - - - - - - -
23/11:00am 23.9 NNE 7 11 1017.4 - 0.0 - - - - - - -
23/10:30am 23.5 NE 12 15 1017.4 - 0.0 - - - - - - -
23/10:00am 23.4 NNE 5 10 1017.6 - 0.0 - - - - - - -
23/09:30am 23.0 NNE 4 7 1017.4 - 0.0 - - - - - - -
23/09:00am 22.2 N 6 9 1017.5 - 0.0 - - - - - - -
23/08:30am 22.1 N 4 8 1017.1 - 0.0 - - - - - - -
23/08:00am 21.1 N 6 10 1017.1 - 0.0 - - - - - - -
23/07:30am 20.5 N 5 7 1016.8 - 0.0 - - - - - - -
23/07:00am 20.3 N 8 11 1016.4 - 0.0 - - - - - - -
23/06:30am 20.6 N 7 10 1016.1 - 0.0 - - - - - - -
23/06:00am 20.7 NNW 5 9 1016.0 - 0.0 - - - - - - -
23/05:30am 20.6 N 7 12 1016.0 - 0.0 - - - - - - -
23/05:00am 20.7 N 10 14 1015.9 - 0.0 - - - - - - -
23/04:30am 21.0 N 12 15 1015.8 - 0.0 - - - - - - -
23/04:00am 21.2 NNW 6 12 1015.6 - 0.0 - - - - - - -
23/03:30am 21.2 NNE 4 8 1016.0 - 0.0 - - - - - - -
23/03:00am 21.2 N 3 5 1016.4 - 0.0 - - - - - - -
23/02:30am 21.3 NNW 7 11 1016.5 - 0.0 - - - - - - -
23/02:00am 21.4 N 8 12 1016.9 - 0.0 - - - - - - -
23/01:30am 21.4 N 9 13 1016.9 - 0.0 - - - - - - -
23/01:00am 21.4 N 11 16 1016.9 - 0.0 - - - - - - -
23/12:30am 21.5 N 9 14 1017.1 - 0.0 - - - - - - -
23/12:00am 21.9 N 7 10 1017.3 - 0.0 - - - - - - -
 
Date/Time
EDT
Temp
°C
Wind Pressure Rain since
9am
mm
Weather Cloud Vis
km
Sea
Height
m
Swell
Dir  Spd
kts
Gust
kts
hPa Trend Height
m
Period
s
Dir
22/11:30pm 22.4 N 8 12 1017.3 - 0.0 - - - - - - -
22/11:00pm 22.6 NNW 7 11 1017.1 - 0.0 - - - - - - -
22/10:30pm 22.7 NNW 5 9 1017.1 - 0.0 - - - - - - -

Other Formats:

Comma delimited format used in spreadsheet applications
http://www.bom.gov.au/fwo/IDN60701/IDN60701.94938.axf

JavaScript Object Notation format (JSON) in row-major order
http://www.bom.gov.au/fwo/IDN60701/IDN60701.94938.json